sensor_id;sensor_type;location;lat;lon;timestamp;P1;durP1;ratioP1;P2;durP2;ratioP2
2023;SDS011;1016;48.770;9.154;2023-04-24T00:00:03;15.63;;;0.93;;
2023;SDS011;1016;48.770;9.154;2023-04-24T00:02:36;16.40;;;1.13;;
2023;SDS011;1016;48.770;9.154;2023-04-24T00:05:04;15.07;;;1.00;;
2023;SDS011;1016;48.770;9.154;2023-04-24T00:07:30;16.13;;;1.20;;
2023;SDS011;1016;48.770;9.154;2023-04-24T00:09:56;16.53;;;1.37;;
2023;SDS011;1016;48.770;9.154;2023-04-24T00:12:22;15.47;;;1.10;;
2023;SDS011;1016;48.770;9.154;2023-04-24T00:14:47;15.60;;;1.00;;
2023;SDS011;1016;48.770;9.154;2023-04-24T00:17:13;15.27;;;1.00;;
2023;SDS011;1016;48.770;9.154;2023-04-24T00:19:38;15.30;;;1.00;;
2023;SDS011;1016;48.770;9.154;2023-04-24T00:22:04;15.50;;;1.00;;
2023;SDS011;1016;48.770;9.154;2023-04-24T00:24:30;15.80;;;1.00;;
2023;SDS011;1016;48.770;9.154;2023-04-24T00:26:55;16.13;;;1.00;;
2023;SDS011;1016;48.770;9.154;2023-04-24T00:29:21;15.30;;;0.93;;
2023;SDS011;1016;48.770;9.154;2023-04-24T00:31:47;15.13;;;0.90;;
2023;SDS011;1016;48.770;9.154;2023-04-24T00:34:12;15.70;;;1.00;;
2023;SDS011;1016;48.770;9.154;2023-04-24T00:36:38;15.80;;;0.90;;
2023;SDS011;1016;48.770;9.154;2023-04-24T00:39:04;16.40;;;1.33;;
2023;SDS011;1016;48.770;9.154;2023-04-24T00:41:29;15.23;;;1.00;;
2023;SDS011;1016;48.770;9.154;2023-04-24T00:43:55;15.80;;;1.10;;
2023;SDS011;1016;48.770;9.154;2023-04-24T00:46:21;15.70;;;1.17;;
2023;SDS011;1016;48.770;9.154;2023-04-24T00:48:46;16.50;;;1.00;;
2023;SDS011;1016;48.770;9.154;2023-04-24T00:51:12;16.70;;;1.10;;
2023;SDS011;1016;48.770;9.154;2023-04-24T00:53:38;16.42;;;1.00;;
2023;SDS011;1016;48.770;9.154;2023-04-24T00:56:03;15.40;;;1.00;;
2023;SDS011;1016;48.770;9.154;2023-04-24T00:58:30;15.95;;;1.00;;
2023;SDS011;1016;48.770;9.154;2023-04-24T01:00:56;16.17;;;1.20;;
2023;SDS011;1016;48.770;9.154;2023-04-24T01:03:26;15.70;;;1.10;;
2023;SDS011;1016;48.770;9.154;2023-04-24T01:05:54;15.48;;;0.93;;
2023;SDS011;1016;48.770;9.154;2023-04-24T01:08:20;15.40;;;1.00;;
2023;SDS011;1016;48.770;9.154;2023-04-24T01:10:49;16.15;;;1.10;;
2023;SDS011;1016;48.770;9.154;2023-04-24T01:13:17;15.50;;;1.00;;
2023;SDS011;1016;48.770;9.154;2023-04-24T01:15:44;15.70;;;1.00;;
2023;SDS011;1016;48.770;9.154;2023-04-24T01:18:10;15.43;;;1.05;;
2023;SDS011;1016;48.770;9.154;2023-04-24T01:20:35;16.10;;;1.10;;
2023;SDS011;1016;48.770;9.154;2023-04-24T01:23:04;16.10;;;1.10;;
2023;SDS011;1016;48.770;9.154;2023-04-24T01:25:31;16.40;;;1.10;;
2023;SDS011;1016;48.770;9.154;2023-04-24T01:27:57;15.30;;;1.00;;
2023;SDS011;1016;48.770;9.154;2023-04-24T01:30:23;16.27;;;1.20;;
2023;SDS011;1016;48.770;9.154;2023-04-24T01:32:48;15.00;;;1.00;;
2023;SDS011;1016;48.770;9.154;2023-04-24T01:35:14;15.35;;;1.20;;
2023;SDS011;1016;48.770;9.154;2023-04-24T01:37:40;15.50;;;1.13;;
2023;SDS011;1016;48.770;9.154;2023-04-24T01:40:06;15.70;;;1.10;;
2023;SDS011;1016;48.770;9.154;2023-04-24T01:42:32;14.75;;;1.00;;
2023;SDS011;1016;48.770;9.154;2023-04-24T01:44:58;15.70;;;1.10;;
2023;SDS011;1016;48.770;9.154;2023-04-24T01:47:24;16.50;;;1.40;;
2023;SDS011;1016;48.770;9.154;2023-04-24T01:49:50;17.10;;;1.10;;
2023;SDS011;1016;48.770;9.154;2023-04-24T01:52:16;15.60;;;1.20;;
2023;SDS011;1016;48.770;9.154;2023-04-24T01:54:43;15.20;;;0.90;;
2023;SDS011;1016;48.770;9.154;2023-04-24T01:57:09;15.40;;;1.10;;
2023;SDS011;1016;48.770;9.154;2023-04-24T01:59:34;15.40;;;1.00;;
2023;SDS011;1016;48.770;9.154;2023-04-24T02:02:01;15.40;;;1.10;;
2023;SDS011;1016;48.770;9.154;2023-04-24T02:04:27;15.88;;;1.17;;
2023;SDS011;1016;48.770;9.154;2023-04-24T02:06:53;15.60;;;1.10;;
2023;SDS011;1016;48.770;9.154;2023-04-24T02:09:18;15.40;;;1.17;;
2023;SDS011;1016;48.770;9.154;2023-04-24T02:11:44;15.77;;;1.10;;
2023;SDS011;1016;48.770;9.154;2023-04-24T02:14:09;16.60;;;1.10;;
2023;SDS011;1016;48.770;9.154;2023-04-24T02:16:35;15.35;;;1.17;;
2023;SDS011;1016;48.770;9.154;2023-04-24T02:19:01;15.37;;;1.10;;
2023;SDS011;1016;48.770;9.154;2023-04-24T02:21:27;15.57;;;1.10;;
2023;SDS011;1016;48.770;9.154;2023-04-24T02:23:53;15.00;;;1.00;;
2023;SDS011;1016;48.770;9.154;2023-04-24T02:26:18;15.23;;;1.08;;
2023;SDS011;1016;48.770;9.154;2023-04-24T02:28:44;15.63;;;1.27;;
2023;SDS011;1016;48.770;9.154;2023-04-24T02:31:10;15.50;;;1.20;;
2023;SDS011;1016;48.770;9.154;2023-04-24T02:33:35;15.60;;;1.20;;
2023;SDS011;1016;48.770;9.154;2023-04-24T02:36:01;16.00;;;1.10;;
2023;SDS011;1016;48.770;9.154;2023-04-24T02:38:27;15.25;;;1.10;;
2023;SDS011;1016;48.770;9.154;2023-04-24T02:40:53;14.93;;;1.10;;
2023;SDS011;1016;48.770;9.154;2023-04-24T02:43:19;15.30;;;1.00;;
2023;SDS011;1016;48.770;9.154;2023-04-24T02:45:45;15.07;;;1.10;;
2023;SDS011;1016;48.770;9.154;2023-04-24T02:48:10;14.80;;;1.00;;
2023;SDS011;1016;48.770;9.154;2023-04-24T02:50:36;15.60;;;1.10;;
2023;SDS011;1016;48.770;9.154;2023-04-24T02:53:01;15.40;;;1.20;;
2023;SDS011;1016;48.770;9.154;2023-04-24T02:55:27;15.90;;;1.10;;
2023;SDS011;1016;48.770;9.154;2023-04-24T02:57:53;15.77;;;1.10;;
2023;SDS011;1016;48.770;9.154;2023-04-24T03:00:18;15.30;;;1.10;;
2023;SDS011;1016;48.770;9.154;2023-04-24T03:02:44;16.05;;;1.40;;
2023;SDS011;1016;48.770;9.154;2023-04-24T03:05:09;16.70;;;1.27;;
2023;SDS011;1016;48.770;9.154;2023-04-24T03:07:36;15.50;;;1.30;;
2023;SDS011;1016;48.770;9.154;2023-04-24T03:10:02;16.80;;;1.30;;
2023;SDS011;1016;48.770;9.154;2023-04-24T03:12:29;16.00;;;1.10;;
2023;SDS011;1016;48.770;9.154;2023-04-24T03:14:55;15.00;;;1.20;;
2023;SDS011;1016;48.770;9.154;2023-04-24T03:17:21;14.80;;;1.10;;
2023;SDS011;1016;48.770;9.154;2023-04-24T03:19:46;15.40;;;1.20;;
2023;SDS011;1016;48.770;9.154;2023-04-24T03:22:12;15.50;;;1.20;;
2023;SDS011;1016;48.770;9.154;2023-04-24T03:24:37;15.18;;;1.30;;
2023;SDS011;1016;48.770;9.154;2023-04-24T03:27:03;15.10;;;1.23;;
2023;SDS011;1016;48.770;9.154;2023-04-24T03:29:28;15.40;;;1.10;;
2023;SDS011;1016;48.770;9.154;2023-04-24T03:31:54;15.10;;;1.00;;
2023;SDS011;1016;48.770;9.154;2023-04-24T03:34:19;16.20;;;1.20;;
2023;SDS011;1016;48.770;9.154;2023-04-24T03:36:45;14.90;;;1.20;;
2023;SDS011;1016;48.770;9.154;2023-04-24T03:39:12;14.55;;;1.00;;
2023;SDS011;1016;48.770;9.154;2023-04-24T03:41:38;15.27;;;1.20;;
2023;SDS011;1016;48.770;9.154;2023-04-24T03:44:03;15.43;;;1.17;;
2023;SDS011;1016;48.770;9.154;2023-04-24T03:46:29;15.63;;;1.10;;
2023;SDS011;1016;48.770;9.154;2023-04-24T03:48:54;14.50;;;1.00;;
2023;SDS011;1016;48.770;9.154;2023-04-24T03:51:20;15.20;;;1.25;;
2023;SDS011;1016;48.770;9.154;2023-04-24T03:53:46;15.00;;;1.20;;
2023;SDS011;1016;48.770;9.154;2023-04-24T03:56:12;15.20;;;1.10;;
2023;SDS011;1016;48.770;9.154;2023-04-24T03:58:37;15.02;;;1.20;;
2023;SDS011;1016;48.770;9.154;2023-04-24T04:01:03;15.67;;;1.10;;
2023;SDS011;1016;48.770;9.154;2023-04-24T04:03:28;15.18;;;1.10;;
2023;SDS011;1016;48.770;9.154;2023-04-24T04:05:54;15.95;;;1.40;;
2023;SDS011;1016;48.770;9.154;2023-04-24T04:08:20;15.60;;;1.20;;
2023;SDS011;1016;48.770;9.154;2023-04-24T04:10:45;15.25;;;1.20;;
2023;SDS011;1016;48.770;9.154;2023-04-24T04:13:11;16.07;;;1.20;;
2023;SDS011;1016;48.770;9.154;2023-04-24T04:15:36;14.70;;;1.10;;
2023;SDS011;1016;48.770;9.154;2023-04-24T04:18:02;14.80;;;1.20;;
2023;SDS011;1016;48.770;9.154;2023-04-24T04:20:27;16.30;;;1.30;;
2023;SDS011;1016;48.770;9.154;2023-04-24T04:22:53;15.93;;;1.30;;
2023;SDS011;1016;48.770;9.154;2023-04-24T04:25:18;15.20;;;1.00;;
2023;SDS011;1016;48.770;9.154;2023-04-24T04:27:44;15.30;;;1.10;;
2023;SDS011;1016;48.770;9.154;2023-04-24T04:30:12;15.43;;;1.20;;
2023;SDS011;1016;48.770;9.154;2023-04-24T04:32:38;15.40;;;1.20;;
2023;SDS011;1016;48.770;9.154;2023-04-24T04:35:04;16.30;;;1.30;;
2023;SDS011;1016;48.770;9.154;2023-04-24T04:37:30;15.30;;;1.10;;
2023;SDS011;1016;48.770;9.154;2023-04-24T04:39:56;15.50;;;1.15;;
2023;SDS011;1016;48.770;9.154;2023-04-24T04:42:23;15.30;;;1.10;;
2023;SDS011;1016;48.770;9.154;2023-04-24T04:44:49;15.13;;;1.10;;
2023;SDS011;1016;48.770;9.154;2023-04-24T04:47:15;15.10;;;1.15;;
2023;SDS011;1016;48.770;9.154;2023-04-24T04:49:42;15.05;;;1.30;;
2023;SDS011;1016;48.770;9.154;2023-04-24T04:52:08;15.80;;;1.20;;
2023;SDS011;1016;48.770;9.154;2023-04-24T04:54:33;14.60;;;1.30;;
2023;SDS011;1016;48.770;9.154;2023-04-24T04:56:59;15.40;;;1.30;;
2023;SDS011;1016;48.770;9.154;2023-04-24T04:59:25;14.88;;;1.10;;
2023;SDS011;1016;48.770;9.154;2023-04-24T05:01:51;15.20;;;1.20;;
2023;SDS011;1016;48.770;9.154;2023-04-24T05:04:17;16.50;;;1.60;;
2023;SDS011;1016;48.770;9.154;2023-04-24T05:06:43;14.40;;;1.00;;
2023;SDS011;1016;48.770;9.154;2023-04-24T05:09:08;15.00;;;1.30;;
2023;SDS011;1016;48.770;9.154;2023-04-24T05:11:34;14.57;;;1.20;;
2023;SDS011;1016;48.770;9.154;2023-04-24T05:14:00;14.93;;;1.40;;
2023;SDS011;1016;48.770;9.154;2023-04-24T05:16:25;15.60;;;1.30;;
2023;SDS011;1016;48.770;9.154;2023-04-24T05:18:51;14.60;;;1.25;;
2023;SDS011;1016;48.770;9.154;2023-04-24T05:21:17;15.30;;;1.45;;
2023;SDS011;1016;48.770;9.154;2023-04-24T05:23:43;16.10;;;1.30;;
2023;SDS011;1016;48.770;9.154;2023-04-24T05:26:08;15.00;;;1.30;;
2023;SDS011;1016;48.770;9.154;2023-04-24T05:28:34;15.40;;;1.90;;
2023;SDS011;1016;48.770;9.154;2023-04-24T05:31:01;15.80;;;1.60;;
2023;SDS011;1016;48.770;9.154;2023-04-24T05:33:27;15.88;;;1.50;;
2023;SDS011;1016;48.770;9.154;2023-04-24T05:35:53;16.03;;;1.50;;
2023;SDS011;1016;48.770;9.154;2023-04-24T05:38:18;15.50;;;1.50;;
2023;SDS011;1016;48.770;9.154;2023-04-24T05:40:45;15.15;;;1.50;;
2023;SDS011;1016;48.770;9.154;2023-04-24T05:43:11;15.70;;;1.70;;
2023;SDS011;1016;48.770;9.154;2023-04-24T05:45:37;15.60;;;1.70;;
2023;SDS011;1016;48.770;9.154;2023-04-24T05:48:03;15.70;;;1.50;;
2023;SDS011;1016;48.770;9.154;2023-04-24T05:50:28;16.33;;;1.50;;
2023;SDS011;1016;48.770;9.154;2023-04-24T05:52:54;15.70;;;1.40;;
2023;SDS011;1016;48.770;9.154;2023-04-24T05:55:20;15.93;;;1.48;;
2023;SDS011;1016;48.770;9.154;2023-04-24T05:57:45;15.10;;;1.50;;
2023;SDS011;1016;48.770;9.154;2023-04-24T06:00:11;16.33;;;1.80;;
2023;SDS011;1016;48.770;9.154;2023-04-24T06:02:37;15.50;;;1.50;;
2023;SDS011;1016;48.770;9.154;2023-04-24T06:05:03;16.17;;;1.30;;
2023;SDS011;1016;48.770;9.154;2023-04-24T06:07:29;15.30;;;1.40;;
2023;SDS011;1016;48.770;9.154;2023-04-24T06:09:55;15.63;;;1.40;;
2023;SDS011;1016;48.770;9.154;2023-04-24T06:12:21;15.20;;;1.60;;
2023;SDS011;1016;48.770;9.154;2023-04-24T06:14:47;15.60;;;1.50;;
2023;SDS011;1016;48.770;9.154;2023-04-24T06:17:13;16.20;;;1.70;;
2023;SDS011;1016;48.770;9.154;2023-04-24T06:19:39;17.38;;;1.60;;
2023;SDS011;1016;48.770;9.154;2023-04-24T06:22:05;14.93;;;1.73;;
2023;SDS011;1016;48.770;9.154;2023-04-24T06:24:30;15.63;;;1.80;;
2023;SDS011;1016;48.770;9.154;2023-04-24T06:26:56;15.90;;;1.80;;
2023;SDS011;1016;48.770;9.154;2023-04-24T06:29:23;15.75;;;1.90;;
2023;SDS011;1016;48.770;9.154;2023-04-24T06:31:49;15.70;;;1.90;;
2023;SDS011;1016;48.770;9.154;2023-04-24T06:34:14;15.60;;;2.10;;
2023;SDS011;1016;48.770;9.154;2023-04-24T06:36:40;15.50;;;1.93;;
2023;SDS011;1016;48.770;9.154;2023-04-24T06:39:06;15.43;;;1.98;;
2023;SDS011;1016;48.770;9.154;2023-04-24T06:41:31;15.40;;;1.85;;
2023;SDS011;1016;48.770;9.154;2023-04-24T06:43:57;16.23;;;2.30;;
2023;SDS011;1016;48.770;9.154;2023-04-24T06:46:23;16.08;;;1.90;;
2023;SDS011;1016;48.770;9.154;2023-04-24T06:48:50;15.93;;;2.20;;
2023;SDS011;1016;48.770;9.154;2023-04-24T06:51:17;15.90;;;2.00;;
2023;SDS011;1016;48.770;9.154;2023-04-24T06:53:43;16.30;;;1.80;;
2023;SDS011;1016;48.770;9.154;2023-04-24T06:56:08;15.93;;;2.10;;
2023;SDS011;1016;48.770;9.154;2023-04-24T06:58:34;16.42;;;1.90;;
2023;SDS011;1016;48.770;9.154;2023-04-24T07:01:00;15.82;;;1.85;;
2023;SDS011;1016;48.770;9.154;2023-04-24T07:03:25;16.03;;;2.20;;
2023;SDS011;1016;48.770;9.154;2023-04-24T07:05:51;15.80;;;2.10;;
2023;SDS011;1016;48.770;9.154;2023-04-24T07:08:17;17.88;;;2.20;;
2023;SDS011;1016;48.770;9.154;2023-04-24T07:10:43;16.50;;;2.00;;
2023;SDS011;1016;48.770;9.154;2023-04-24T07:13:09;16.00;;;2.00;;
2023;SDS011;1016;48.770;9.154;2023-04-24T07:15:35;16.70;;;2.20;;
2023;SDS011;1016;48.770;9.154;2023-04-24T07:18:01;15.60;;;1.70;;
2023;SDS011;1016;48.770;9.154;2023-04-24T07:20:26;15.70;;;2.00;;
2023;SDS011;1016;48.770;9.154;2023-04-24T07:22:52;16.70;;;1.80;;
2023;SDS011;1016;48.770;9.154;2023-04-24T07:25:18;16.20;;;1.90;;
2023;SDS011;1016;48.770;9.154;2023-04-24T07:27:44;16.37;;;2.00;;
2023;SDS011;1016;48.770;9.154;2023-04-24T07:30:10;16.70;;;1.90;;
2023;SDS011;1016;48.770;9.154;2023-04-24T07:32:36;16.10;;;1.60;;
2023;SDS011;1016;48.770;9.154;2023-04-24T07:35:11;15.73;;;1.70;;
2023;SDS011;1016;48.770;9.154;2023-04-24T07:40:48;15.85;;;1.58;;
2023;SDS011;1016;48.770;9.154;2023-04-24T07:43:17;16.63;;;1.80;;
2023;SDS011;1016;48.770;9.154;2023-04-24T07:45:47;16.43;;;1.50;;
2023;SDS011;1016;48.770;9.154;2023-04-24T07:48:15;16.60;;;1.63;;
2023;SDS011;1016;48.770;9.154;2023-04-24T07:50:42;17.30;;;1.70;;
2023;SDS011;1016;48.770;9.154;2023-04-24T07:53:08;16.88;;;2.33;;
2023;SDS011;1016;48.770;9.154;2023-04-24T07:55:34;16.40;;;1.60;;
2023;SDS011;1016;48.770;9.154;2023-04-24T07:57:59;16.40;;;1.70;;
2023;SDS011;1016;48.770;9.154;2023-04-24T08:00:25;17.47;;;1.90;;
2023;SDS011;1016;48.770;9.154;2023-04-24T08:02:51;17.00;;;1.65;;
2023;SDS011;1016;48.770;9.154;2023-04-24T08:05:16;16.60;;;1.50;;
2023;SDS011;1016;48.770;9.154;2023-04-24T08:07:42;17.80;;;1.93;;
2023;SDS011;1016;48.770;9.154;2023-04-24T08:10:09;17.20;;;1.70;;
2023;SDS011;1016;48.770;9.154;2023-04-24T08:12:36;16.30;;;1.60;;
2023;SDS011;1016;48.770;9.154;2023-04-24T08:15:02;17.40;;;1.70;;
2023;SDS011;1016;48.770;9.154;2023-04-24T08:17:29;16.65;;;1.80;;
2023;SDS011;1016;48.770;9.154;2023-04-24T08:19:55;16.50;;;1.80;;
2023;SDS011;1016;48.770;9.154;2023-04-24T08:22:26;16.40;;;1.60;;
2023;SDS011;1016;48.770;9.154;2023-04-24T08:24:52;17.00;;;1.63;;
2023;SDS011;1016;48.770;9.154;2023-04-24T08:27:18;16.80;;;1.90;;
2023;SDS011;1016;48.770;9.154;2023-04-24T08:29:44;17.17;;;1.60;;
2023;SDS011;1016;48.770;9.154;2023-04-24T08:32:09;17.57;;;1.70;;
2023;SDS011;1016;48.770;9.154;2023-04-24T08:34:35;16.77;;;1.70;;
2023;SDS011;1016;48.770;9.154;2023-04-24T08:37:00;17.50;;;2.13;;
2023;SDS011;1016;48.770;9.154;2023-04-24T08:39:27;17.38;;;1.80;;
2023;SDS011;1016;48.770;9.154;2023-04-24T08:41:52;17.10;;;1.80;;
2023;SDS011;1016;48.770;9.154;2023-04-24T08:44:18;17.75;;;1.60;;
2023;SDS011;1016;48.770;9.154;2023-04-24T08:46:44;17.08;;;1.70;;
2023;SDS011;1016;48.770;9.154;2023-04-24T08:49:13;16.95;;;2.00;;
2023;SDS011;1016;48.770;9.154;2023-04-24T08:51:41;17.55;;;1.70;;
2023;SDS011;1016;48.770;9.154;2023-04-24T08:54:07;17.90;;;2.10;;
2023;SDS011;1016;48.770;9.154;2023-04-24T08:56:33;17.77;;;2.10;;
2023;SDS011;1016;48.770;9.154;2023-04-24T08:59:02;17.10;;;2.00;;
2023;SDS011;1016;48.770;9.154;2023-04-24T09:01:29;17.85;;;1.98;;
2023;SDS011;1016;48.770;9.154;2023-04-24T09:03:57;17.73;;;1.83;;
2023;SDS011;1016;48.770;9.154;2023-04-24T09:06:29;17.30;;;2.00;;
2023;SDS011;1016;48.770;9.154;2023-04-24T09:08:57;16.45;;;1.80;;
2023;SDS011;1016;48.770;9.154;2023-04-24T09:11:28;17.73;;;1.95;;
2023;SDS011;1016;48.770;9.154;2023-04-24T09:13:55;18.63;;;2.30;;
2023;SDS011;1016;48.770;9.154;2023-04-24T09:16:21;16.97;;;2.00;;
2023;SDS011;1016;48.770;9.154;2023-04-24T09:18:49;17.05;;;2.00;;
2023;SDS011;1016;48.770;9.154;2023-04-24T09:21:15;17.90;;;2.10;;
2023;SDS011;1016;48.770;9.154;2023-04-24T09:23:40;16.90;;;1.80;;
2023;SDS011;1016;48.770;9.154;2023-04-24T09:26:06;16.60;;;1.67;;
2023;SDS011;1016;48.770;9.154;2023-04-24T09:28:36;17.42;;;2.00;;
2023;SDS011;1016;48.770;9.154;2023-04-24T09:33:39;16.65;;;1.60;;
2023;SDS011;1016;48.770;9.154;2023-04-24T09:36:06;16.67;;;1.60;;
2023;SDS011;1016;48.770;9.154;2023-04-24T09:40:59;17.00;;;1.90;;
2023;SDS011;1016;48.770;9.154;2023-04-24T09:43:28;17.08;;;1.80;;
2023;SDS011;1016;48.770;9.154;2023-04-24T09:45:58;17.10;;;1.90;;
2023;SDS011;1016;48.770;9.154;2023-04-24T09:48:34;17.08;;;1.70;;
2023;SDS011;1016;48.770;9.154;2023-04-24T09:51:01;17.40;;;1.67;;
2023;SDS011;1016;48.770;9.154;2023-04-24T09:53:29;17.00;;;1.80;;
2023;SDS011;1016;48.770;9.154;2023-04-24T09:55:55;18.23;;;1.90;;
2023;SDS011;1016;48.770;9.154;2023-04-24T09:58:25;18.27;;;1.90;;
2023;SDS011;1016;48.770;9.154;2023-04-24T10:00:54;16.45;;;1.75;;
2023;SDS011;1016;48.770;9.154;2023-04-24T10:03:21;17.80;;;1.80;;
2023;SDS011;1016;48.770;9.154;2023-04-24T10:05:51;16.88;;;1.80;;
2023;SDS011;1016;48.770;9.154;2023-04-24T10:08:16;17.95;;;1.50;;
2023;SDS011;1016;48.770;9.154;2023-04-24T10:10:43;16.43;;;1.50;;
2023;SDS011;1016;48.770;9.154;2023-04-24T10:13:10;16.20;;;1.30;;
2023;SDS011;1016;48.770;9.154;2023-04-24T10:15:38;16.65;;;1.50;;
2023;SDS011;1016;48.770;9.154;2023-04-24T10:18:05;16.20;;;1.40;;
2023;SDS011;1016;48.770;9.154;2023-04-24T10:20:31;16.25;;;1.50;;
2023;SDS011;1016;48.770;9.154;2023-04-24T10:22:58;17.10;;;1.58;;
2023;SDS011;1016;48.770;9.154;2023-04-24T10:25:31;18.75;;;1.60;;
2023;SDS011;1016;48.770;9.154;2023-04-24T10:27:58;16.50;;;1.40;;
2023;SDS011;1016;48.770;9.154;2023-04-24T10:30:29;16.60;;;1.40;;
2023;SDS011;1016;48.770;9.154;2023-04-24T10:33:00;16.40;;;1.50;;
2023;SDS011;1016;48.770;9.154;2023-04-24T10:35:26;16.50;;;1.50;;
2023;SDS011;1016;48.770;9.154;2023-04-24T10:37:57;16.73;;;1.42;;
2023;SDS011;1016;48.770;9.154;2023-04-24T10:40:27;16.63;;;1.50;;
2023;SDS011;1016;48.770;9.154;2023-04-24T10:42:56;16.60;;;1.50;;
2023;SDS011;1016;48.770;9.154;2023-04-24T10:45:22;17.00;;;1.40;;
2023;SDS011;1016;48.770;9.154;2023-04-24T10:48:31;17.60;;;1.30;;
2023;SDS011;1016;48.770;9.154;2023-04-24T10:50:46;16.50;;;1.50;;
2023;SDS011;1016;48.770;9.154;2023-04-24T10:53:16;16.50;;;1.50;;
2023;SDS011;1016;48.770;9.154;2023-04-24T10:58:12;16.23;;;1.30;;
2023;SDS011;1016;48.770;9.154;2023-04-24T11:00:40;16.70;;;1.40;;
2023;SDS011;1016;48.770;9.154;2023-04-24T11:03:08;16.90;;;1.50;;
2023;SDS011;1016;48.770;9.154;2023-04-24T11:05:49;16.00;;;1.20;;
2023;SDS011;1016;48.770;9.154;2023-04-24T11:08:23;16.20;;;1.20;;
2023;SDS011;1016;48.770;9.154;2023-04-24T11:10:56;16.30;;;1.30;;
2023;SDS011;1016;48.770;9.154;2023-04-24T11:24:24;17.27;;;1.50;;
2023;SDS011;1016;48.770;9.154;2023-04-24T11:26:55;16.90;;;1.40;;
2023;SDS011;1016;48.770;9.154;2023-04-24T11:29:23;16.20;;;1.20;;
2023;SDS011;1016;48.770;9.154;2023-04-24T11:32:14;16.40;;;1.30;;
2023;SDS011;1016;48.770;9.154;2023-04-24T11:34:51;16.38;;;1.40;;
2023;SDS011;1016;48.770;9.154;2023-04-24T11:37:18;16.70;;;1.52;;
2023;SDS011;1016;48.770;9.154;2023-04-24T11:39:43;16.20;;;1.40;;
2023;SDS011;1016;48.770;9.154;2023-04-24T11:42:10;17.10;;;1.50;;
2023;SDS011;1016;48.770;9.154;2023-04-24T11:44:39;16.92;;;1.70;;
2023;SDS011;1016;48.770;9.154;2023-04-24T11:47:07;16.70;;;1.80;;
2023;SDS011;1016;48.770;9.154;2023-04-24T11:49:33;17.30;;;1.80;;
2023;SDS011;1016;48.770;9.154;2023-04-24T11:52:01;16.83;;;1.50;;
2023;SDS011;1016;48.770;9.154;2023-04-24T11:54:26;16.90;;;1.30;;
2023;SDS011;1016;48.770;9.154;2023-04-24T11:56:52;16.60;;;1.50;;
2023;SDS011;1016;48.770;9.154;2023-04-24T11:59:17;16.20;;;1.50;;
2023;SDS011;1016;48.770;9.154;2023-04-24T12:01:44;16.30;;;1.40;;
2023;SDS011;1016;48.770;9.154;2023-04-24T12:04:10;17.45;;;1.50;;
2023;SDS011;1016;48.770;9.154;2023-04-24T12:06:36;16.17;;;1.48;;
2023;SDS011;1016;48.770;9.154;2023-04-24T12:09:01;16.87;;;1.70;;
2023;SDS011;1016;48.770;9.154;2023-04-24T12:11:27;16.20;;;1.42;;
2023;SDS011;1016;48.770;9.154;2023-04-24T12:13:52;16.20;;;1.50;;
2023;SDS011;1016;48.770;9.154;2023-04-24T12:16:18;16.48;;;1.50;;
2023;SDS011;1016;48.770;9.154;2023-04-24T12:18:44;16.50;;;1.60;;
2023;SDS011;1016;48.770;9.154;2023-04-24T12:21:14;16.33;;;1.50;;
2023;SDS011;1016;48.770;9.154;2023-04-24T12:23:42;17.60;;;1.60;;
2023;SDS011;1016;48.770;9.154;2023-04-24T12:26:12;16.50;;;1.70;;
2023;SDS011;1016;48.770;9.154;2023-04-24T12:28:45;16.63;;;1.70;;
2023;SDS011;1016;48.770;9.154;2023-04-24T12:31:13;17.27;;;1.60;;
2023;SDS011;1016;48.770;9.154;2023-04-24T12:33:38;17.80;;;1.60;;
2023;SDS011;1016;48.770;9.154;2023-04-24T12:36:04;17.33;;;1.70;;
2023;SDS011;1016;48.770;9.154;2023-04-24T12:38:31;17.00;;;1.70;;
2023;SDS011;1016;48.770;9.154;2023-04-24T12:41:14;16.63;;;1.70;;
2023;SDS011;1016;48.770;9.154;2023-04-24T12:43:50;16.67;;;1.60;;
2023;SDS011;1016;48.770;9.154;2023-04-24T12:46:20;17.50;;;1.77;;
2023;SDS011;1016;48.770;9.154;2023-04-24T12:48:45;17.20;;;1.60;;
2023;SDS011;1016;48.770;9.154;2023-04-24T12:51:11;16.60;;;1.90;;
2023;SDS011;1016;48.770;9.154;2023-04-24T12:53:36;16.45;;;1.50;;
2023;SDS011;1016;48.770;9.154;2023-04-24T12:56:02;16.70;;;1.67;;
2023;SDS011;1016;48.770;9.154;2023-04-24T12:58:28;16.42;;;1.65;;
2023;SDS011;1016;48.770;9.154;2023-04-24T13:00:53;16.40;;;1.50;;
2023;SDS011;1016;48.770;9.154;2023-04-24T13:03:19;16.90;;;1.80;;
2023;SDS011;1016;48.770;9.154;2023-04-24T13:05:45;16.20;;;1.40;;
2023;SDS011;1016;48.770;9.154;2023-04-24T13:08:10;16.90;;;1.50;;
2023;SDS011;1016;48.770;9.154;2023-04-24T13:10:37;16.00;;;1.40;;
2023;SDS011;1016;48.770;9.154;2023-04-24T13:13:03;16.63;;;1.55;;
2023;SDS011;1016;48.770;9.154;2023-04-24T13:15:29;16.52;;;1.40;;
2023;SDS011;1016;48.770;9.154;2023-04-24T13:17:54;16.63;;;1.53;;
2023;SDS011;1016;48.770;9.154;2023-04-24T13:20:20;17.03;;;1.60;;
2023;SDS011;1016;48.770;9.154;2023-04-24T13:22:47;16.73;;;1.50;;
2023;SDS011;1016;48.770;9.154;2023-04-24T13:25:12;17.50;;;1.40;;
2023;SDS011;1016;48.770;9.154;2023-04-24T13:27:38;16.43;;;1.60;;
2023;SDS011;1016;48.770;9.154;2023-04-24T13:30:04;16.52;;;1.70;;
2023;SDS011;1016;48.770;9.154;2023-04-24T13:32:30;16.60;;;1.60;;
2023;SDS011;1016;48.770;9.154;2023-04-24T13:34:58;16.58;;;1.50;;
2023;SDS011;1016;48.770;9.154;2023-04-24T13:37:24;16.90;;;1.60;;
2023;SDS011;1016;48.770;9.154;2023-04-24T13:39:52;16.88;;;1.70;;
2023;SDS011;1016;48.770;9.154;2023-04-24T13:42:18;17.20;;;1.70;;
2023;SDS011;1016;48.770;9.154;2023-04-24T13:44:44;17.40;;;1.90;;
2023;SDS011;1016;48.770;9.154;2023-04-24T13:47:10;17.13;;;1.70;;
2023;SDS011;1016;48.770;9.154;2023-04-24T13:49:35;16.50;;;1.70;;
2023;SDS011;1016;48.770;9.154;2023-04-24T13:52:01;16.52;;;1.60;;
2023;SDS011;1016;48.770;9.154;2023-04-24T13:54:27;17.20;;;1.60;;
2023;SDS011;1016;48.770;9.154;2023-04-24T13:56:53;16.10;;;1.60;;
2023;SDS011;1016;48.770;9.154;2023-04-24T13:59:21;16.00;;;1.70;;
2023;SDS011;1016;48.770;9.154;2023-04-24T14:01:46;15.80;;;1.70;;
2023;SDS011;1016;48.770;9.154;2023-04-24T14:04:12;16.00;;;1.70;;
2023;SDS011;1016;48.770;9.154;2023-04-24T14:06:38;16.30;;;1.60;;
2023;SDS011;1016;48.770;9.154;2023-04-24T14:09:03;16.20;;;1.50;;
2023;SDS011;1016;48.770;9.154;2023-04-24T14:11:29;16.13;;;1.33;;
2023;SDS011;1016;48.770;9.154;2023-04-24T14:13:55;15.80;;;1.30;;
2023;SDS011;1016;48.770;9.154;2023-04-24T14:16:24;20.40;;;1.90;;
2023;SDS011;1016;48.770;9.154;2023-04-24T14:18:50;19.40;;;1.93;;
2023;SDS011;1016;48.770;9.154;2023-04-24T14:21:16;19.23;;;1.63;;
2023;SDS011;1016;48.770;9.154;2023-04-24T14:23:41;18.97;;;1.50;;
2023;SDS011;1016;48.770;9.154;2023-04-24T14:26:07;19.00;;;1.63;;
2023;SDS011;1016;48.770;9.154;2023-04-24T14:28:32;18.80;;;1.63;;
2023;SDS011;1016;48.770;9.154;2023-04-24T14:30:58;22.30;;;2.60;;
2023;SDS011;1016;48.770;9.154;2023-04-24T14:33:23;19.23;;;1.50;;
2023;SDS011;1016;48.770;9.154;2023-04-24T14:35:58;19.00;;;1.30;;
2023;SDS011;1016;48.770;9.154;2023-04-24T14:38:24;20.03;;;1.43;;
2023;SDS011;1016;48.770;9.154;2023-04-24T14:40:50;19.13;;;1.60;;
2023;SDS011;1016;48.770;9.154;2023-04-24T14:43:15;18.83;;;1.40;;
2023;SDS011;1016;48.770;9.154;2023-04-24T14:45:41;19.50;;;1.40;;
2023;SDS011;1016;48.770;9.154;2023-04-24T14:48:06;19.23;;;1.63;;
2023;SDS011;1016;48.770;9.154;2023-04-24T14:50:33;19.13;;;2.00;;
2023;SDS011;1016;48.770;9.154;2023-04-24T14:53:01;20.63;;;2.17;;
2023;SDS011;1016;48.770;9.154;2023-04-24T14:55:27;19.70;;;2.00;;
2023;SDS011;1016;48.770;9.154;2023-04-24T14:57:53;21.27;;;2.20;;
2023;SDS011;1016;48.770;9.154;2023-04-24T15:00:19;19.57;;;2.00;;
2023;SDS011;1016;48.770;9.154;2023-04-24T15:02:48;19.73;;;2.23;;
2023;SDS011;1016;48.770;9.154;2023-04-24T15:05:13;20.27;;;2.30;;
2023;SDS011;1016;48.770;9.154;2023-04-24T15:07:39;20.43;;;2.10;;
2023;SDS011;1016;48.770;9.154;2023-04-24T15:10:06;20.40;;;2.30;;
2023;SDS011;1016;48.770;9.154;2023-04-24T15:12:32;20.37;;;2.57;;
2023;SDS011;1016;48.770;9.154;2023-04-24T15:15:01;20.20;;;2.27;;
2023;SDS011;1016;48.770;9.154;2023-04-24T15:17:27;21.07;;;2.40;;